createdAt,value
2023-05-12T00:02:02.234Z,25.15
2023-05-12T00:04:30.349Z,26.42
2023-05-12T00:06:59.770Z,24.30
2023-05-12T00:09:27.819Z,22.85
2023-05-12T00:11:55.893Z,23.90
2023-05-12T00:14:24.023Z,24.80
2023-05-12T00:16:52.540Z,26.08
2023-05-12T00:19:21.176Z,24.00
2023-05-12T00:21:49.191Z,25.02
2023-05-12T00:24:18.577Z,25.38
2023-05-12T00:26:46.642Z,25.13
2023-05-12T00:29:14.657Z,24.48
2023-05-12T00:31:42.717Z,25.80
2023-05-12T00:34:10.839Z,25.25
2023-05-12T00:36:38.907Z,24.85
2023-05-12T00:39:06.932Z,25.20
2023-05-12T00:41:36.710Z,25.13
2023-05-12T00:44:04.846Z,24.45
2023-05-12T00:46:33.034Z,24.60
2023-05-12T00:49:01.111Z,24.55
2023-05-12T00:51:29.688Z,23.08
2023-05-12T00:53:58.234Z,24.95
2023-05-12T00:56:26.908Z,25.63
2023-05-12T00:58:56.473Z,26.05
2023-05-12T01:01:24.711Z,24.50
2023-05-12T01:03:55.465Z,24.00
2023-05-12T01:06:28.966Z,23.33
2023-05-12T01:08:58.623Z,24.83
2023-05-12T01:11:26.784Z,25.50
2023-05-12T01:13:56.217Z,25.67
2023-05-12T01:16:27.250Z,24.55
2023-05-12T01:18:57.379Z,24.52
2023-05-12T01:21:25.738Z,24.83
2023-05-12T01:23:59.734Z,24.50
2023-05-12T01:26:32.477Z,24.73
2023-05-12T01:29:03.367Z,24.75
2023-05-12T01:31:32.224Z,24.15
2023-05-12T01:34:00.845Z,25.23
2023-05-12T01:36:29.276Z,23.83
2023-05-12T01:38:57.610Z,23.98
2023-05-12T01:41:25.641Z,24.60
2023-05-12T01:43:55.197Z,25.27
2023-05-12T01:46:23.328Z,23.88
2023-05-12T01:48:52.202Z,22.52
2023-05-12T01:51:20.225Z,23.95
2023-05-12T01:53:48.770Z,25.13
2023-05-12T01:56:17.069Z,23.98
2023-05-12T01:58:45.309Z,23.27
2023-05-12T02:01:14.810Z,25.27
2023-05-12T02:03:44.138Z,23.83
2023-05-12T02:06:14.933Z,24.17
2023-05-12T02:08:43.065Z,24.63
2023-05-12T02:11:11.166Z,24.73
2023-05-12T02:13:39.757Z,25.30
2023-05-12T02:16:08.798Z,24.90
2023-05-12T02:18:38.456Z,24.95
2023-05-12T02:21:08.607Z,24.33
2023-05-12T02:23:37.146Z,24.67
2023-05-12T02:26:05.204Z,25.58
2023-05-12T02:28:33.923Z,25.75
2023-05-12T02:31:01.951Z,24.83
2023-05-12T02:33:31.437Z,27.42
2023-05-12T02:36:00.985Z,24.95
2023-05-12T02:38:29.375Z,27.02
2023-05-12T02:40:57.384Z,27.05
2023-05-12T02:43:26.884Z,27.73
2023-05-12T02:45:55.863Z,27.10
2023-05-12T02:48:23.944Z,29.30
2023-05-12T02:50:53.750Z,25.90
2023-05-12T02:53:23.233Z,26.33
2023-05-12T02:55:51.595Z,27.50
2023-05-12T02:58:19.640Z,27.60
2023-05-12T03:00:54.152Z,26.67
2023-05-12T03:03:28.294Z,26.80
2023-05-12T03:05:57.303Z,27.15
2023-05-12T03:08:26.848Z,28.00
2023-05-12T03:10:54.915Z,25.38
2023-05-12T03:13:23.492Z,28.02
2023-05-12T03:15:51.978Z,29.42
2023-05-12T03:18:20.158Z,28.73
2023-05-12T03:20:48.385Z,27.35
2023-05-12T03:23:16.900Z,28.13
2023-05-12T03:25:46.772Z,29.13
2023-05-12T03:28:14.896Z,30.67
2023-05-12T03:30:42.996Z,29.90
2023-05-12T03:33:11.067Z,29.65
2023-05-12T03:35:39.143Z,29.52
2023-05-12T03:38:07.284Z,29.83
2023-05-12T03:40:35.305Z,30.73
2023-05-12T03:43:05.277Z,30.65
2023-05-12T03:45:33.376Z,30.98
2023-05-12T03:48:01.422Z,27.05
2023-05-12T03:50:30.141Z,27.83
2023-05-12T03:52:58.160Z,31.77
2023-05-12T03:55:26.276Z,30.08
2023-05-12T03:57:54.294Z,35.70
2023-05-12T04:00:24.082Z,32.63
2023-05-12T04:02:52.191Z,32.05
2023-05-12T04:05:20.786Z,33.88
2023-05-12T04:07:48.824Z,35.50
2023-05-12T04:10:17.272Z,29.85
2023-05-12T04:12:45.330Z,39.10
2023-05-12T04:15:14.846Z,40.88
2023-05-12T04:17:44.288Z,41.22
2023-05-12T04:20:13.805Z,37.15
2023-05-12T04:22:41.912Z,37.17
2023-05-12T04:25:10.992Z,29.98
2023-05-12T04:27:40.372Z,32.60
2023-05-12T04:30:09.703Z,32.97
2023-05-12T04:32:40.038Z,30.08
2023-05-12T04:35:10.619Z,27.35
2023-05-12T04:37:38.720Z,30.73
2023-05-12T04:40:08.931Z,32.05
2023-05-12T04:42:37.553Z,31.10
2023-05-12T04:45:07.666Z,31.05
2023-05-12T04:47:36.816Z,31.05
2023-05-12T04:50:05.870Z,29.77
2023-05-12T04:52:35.758Z,33.33
2023-05-12T04:55:04.014Z,29.88
2023-05-12T04:57:32.333Z,30.30
2023-05-12T05:00:04.855Z,30.10
2023-05-12T05:02:33.815Z,33.53
2023-05-12T05:05:02.124Z,30.42
2023-05-12T05:07:32.055Z,31.58
2023-05-12T05:10:01.797Z,32.80
2023-05-12T05:12:31.470Z,34.17
2023-05-12T05:14:59.850Z,32.30
2023-05-12T05:17:28.174Z,33.65
2023-05-12T05:19:59.298Z,32.53
2023-05-12T05:22:31.667Z,32.08
2023-05-12T05:25:06.513Z,32.35
2023-05-12T05:27:34.948Z,33.10
2023-05-12T05:30:03.362Z,31.83
2023-05-12T05:32:33.259Z,32.10
2023-05-12T05:35:01.928Z,35.00
2023-05-12T05:37:30.992Z,35.83
2023-05-12T05:39:59.752Z,36.15
2023-05-12T05:42:29.456Z,34.60
2023-05-12T05:44:57.807Z,35.65
2023-05-12T05:47:28.227Z,32.70
2023-05-12T05:49:56.648Z,35.42
2023-05-12T05:52:24.937Z,34.83
2023-05-12T05:54:53.324Z,34.45
2023-05-12T05:57:22.979Z,34.50
2023-05-12T05:59:53.048Z,34.50
2023-05-12T06:02:23.316Z,35.10
2023-05-12T06:04:52.579Z,34.75
2023-05-12T06:07:22.254Z,35.30
2023-05-12T06:09:50.836Z,34.95
2023-05-12T06:12:19.067Z,32.65
2023-05-12T06:14:51.215Z,34.55
2023-05-12T06:17:21.292Z,34.00
2023-05-12T06:19:50.666Z,33.85
2023-05-12T06:22:19.528Z,34.72
2023-05-12T06:24:47.987Z,34.70
2023-05-12T06:27:16.284Z,36.20
2023-05-12T06:29:44.592Z,34.53
2023-05-12T06:32:12.948Z,34.33
2023-05-12T06:34:42.648Z,33.80
2023-05-12T06:37:11.046Z,33.35
2023-05-12T06:39:39.394Z,33.83
2023-05-12T06:42:08.031Z,32.10
2023-05-12T06:44:42.720Z,33.20
2023-05-12T06:47:11.175Z,34.08
2023-05-12T06:49:39.436Z,33.58
2023-05-12T06:52:09.470Z,33.47
2023-05-12T06:54:37.834Z,32.58
2023-05-12T06:57:06.429Z,32.08
2023-05-12T06:59:34.715Z,32.40
2023-05-12T07:02:03.094Z,32.28
2023-05-12T07:04:31.526Z,32.85
2023-05-12T07:06:59.804Z,32.70
2023-05-12T07:09:29.571Z,31.80
2023-05-12T07:11:57.890Z,32.92
2023-05-12T07:14:26.308Z,32.47
2023-05-12T07:16:54.645Z,31.60
2023-05-12T07:19:22.911Z,31.85
2023-05-12T07:21:51.257Z,32.28
2023-05-12T07:24:19.572Z,32.85
2023-05-12T07:26:49.394Z,31.55
2023-05-12T07:29:17.742Z,31.13
2023-05-12T07:31:46.282Z,30.63
2023-05-12T07:34:15.900Z,29.42
2023-05-12T07:36:46.127Z,29.70
2023-05-12T07:39:19.141Z,27.52
2023-05-12T07:41:48.850Z,28.40
2023-05-12T07:44:17.369Z,28.17
2023-05-12T07:46:45.890Z,27.30
2023-05-12T07:49:14.247Z,27.55
2023-05-12T07:51:42.618Z,26.92
2023-05-12T07:54:10.905Z,25.20
2023-05-12T07:56:39.185Z,25.35
2023-05-12T07:59:08.925Z,25.30
2023-05-12T08:01:37.185Z,24.70
2023-05-12T08:04:06.769Z,22.80
2023-05-12T08:06:35.131Z,22.77
2023-05-12T08:09:03.543Z,22.80
2023-05-12T08:11:31.915Z,20.70
2023-05-12T08:14:00.413Z,20.60
2023-05-12T08:16:30.386Z,19.98
2023-05-12T08:18:59.922Z,19.27
2023-05-12T08:21:28.757Z,20.55
2023-05-12T08:23:57.471Z,19.55
2023-05-12T08:26:26.060Z,18.85
2023-05-12T08:28:54.384Z,19.38
2023-05-12T08:31:22.720Z,19.45
2023-05-12T08:34:08.580Z,19.15
2023-05-12T08:36:37.932Z,19.35
2023-05-12T08:39:06.758Z,17.73
2023-05-12T08:41:44.541Z,18.75
2023-05-12T08:44:13.838Z,17.98
2023-05-12T08:46:43.347Z,17.88
2023-05-12T08:49:16.600Z,18.20
2023-05-12T08:51:54.423Z,16.67
2023-05-12T08:54:27.732Z,17.15
2023-05-12T08:59:27.553Z,16.10
2023-05-12T09:01:57.171Z,16.30
2023-05-12T09:04:26.880Z,14.98
2023-05-12T09:06:56.044Z,14.75
2023-05-12T09:09:26.529Z,15.23
2023-05-12T09:11:58.672Z,14.80
2023-05-12T09:14:27.741Z,12.75
2023-05-12T09:17:01.655Z,12.80
2023-05-12T09:19:31.552Z,10.95
2023-05-12T09:22:00.293Z,10.52
2023-05-12T09:24:38.541Z,10.43
2023-05-12T09:27:07.711Z,11.98
2023-05-12T09:29:45.072Z,11.50
2023-05-12T09:32:16.533Z,9.60
2023-05-12T09:34:46.327Z,9.73
2023-05-12T09:37:15.957Z,9.15
2023-05-12T09:39:45.908Z,10.10
2023-05-12T09:42:14.322Z,11.02
2023-05-12T09:44:42.809Z,11.43
2023-05-12T09:47:11.393Z,10.73
2023-05-12T09:49:39.720Z,10.52
2023-05-12T09:52:09.406Z,9.95
2023-05-12T09:54:41.164Z,8.93
2023-05-12T09:57:13.080Z,7.65
2023-05-12T09:59:44.072Z,7.80
2023-05-12T10:02:16.442Z,7.93
2023-05-12T10:04:48.664Z,7.95
2023-05-12T10:07:23.178Z,7.35
2023-05-12T10:09:52.894Z,6.80
2023-05-12T10:12:21.304Z,7.93
2023-05-12T10:14:50.374Z,8.02
2023-05-12T10:17:20.783Z,8.27
2023-05-12T10:19:50.245Z,6.90
2023-05-12T10:22:21.342Z,6.00
2023-05-12T10:24:50.825Z,6.10
2023-05-12T10:27:20.761Z,5.57
2023-05-12T10:29:50.745Z,5.90
2023-05-12T10:32:19.844Z,6.95
2023-05-12T10:34:48.317Z,6.35
2023-05-12T10:37:16.744Z,5.63
2023-05-12T10:39:52.330Z,5.40
2023-05-12T10:42:25.646Z,5.47
2023-05-12T10:44:54.901Z,5.07
2023-05-12T10:47:26.923Z,5.80
2023-05-12T10:49:59.059Z,5.82
2023-05-12T10:52:27.359Z,5.85
2023-05-12T10:55:04.400Z,5.55
2023-05-12T10:57:33.923Z,4.55
2023-05-12T11:00:04.040Z,4.65
2023-05-12T11:02:35.906Z,4.10
2023-05-12T11:05:13.106Z,4.57
2023-05-12T11:07:41.997Z,4.38
2023-05-12T11:12:43.716Z,4.93
2023-05-12T11:15:13.560Z,3.88
2023-05-12T11:17:42.712Z,3.60
2023-05-12T11:20:11.355Z,3.72
2023-05-12T11:22:42.865Z,3.70
2023-05-12T11:25:13.521Z,3.58
2023-05-12T11:27:47.710Z,3.63
2023-05-12T11:30:16.177Z,3.75
2023-05-12T11:32:44.938Z,3.58
2023-05-12T11:35:14.476Z,3.72
2023-05-12T11:37:44.317Z,3.58
2023-05-12T11:40:18.775Z,3.35
2023-05-12T11:42:51.709Z,3.22
2023-05-12T11:45:28.795Z,4.05
2023-05-12T11:48:08.848Z,3.67
2023-05-12T11:50:39.985Z,4.50
2023-05-12T11:53:12.377Z,4.03
2023-05-12T11:55:50.160Z,3.17
2023-05-12T11:58:25.998Z,3.40
2023-05-12T12:00:55.278Z,3.15
2023-05-12T12:03:24.106Z,3.20
2023-05-12T12:06:03.665Z,3.08
2023-05-12T12:08:32.590Z,3.25
2023-05-12T12:11:04.372Z,2.90
2023-05-12T12:13:32.471Z,3.15
2023-05-12T12:16:00.697Z,3.10
2023-05-12T12:18:29.262Z,6.50
2023-05-12T12:20:58.781Z,3.50
2023-05-12T12:23:27.113Z,3.90
2023-05-12T12:25:55.470Z,3.30
2023-05-12T12:28:25.227Z,3.42
2023-05-12T12:30:53.865Z,3.83
2023-05-12T12:33:22.326Z,3.67
2023-05-12T12:35:50.895Z,3.38
2023-05-12T12:38:19.109Z,3.08
2023-05-12T12:40:47.630Z,2.95
2023-05-12T12:43:15.934Z,3.45
2023-05-12T12:45:45.480Z,3.20
2023-05-12T12:48:13.805Z,3.63
2023-05-12T12:50:42.444Z,3.78
2023-05-12T12:53:11.293Z,3.90
2023-05-12T12:55:39.624Z,3.80
2023-05-12T12:58:07.843Z,3.78
2023-05-12T13:00:35.955Z,3.45
2023-05-12T13:03:06.586Z,3.75
2023-05-12T13:05:35.123Z,3.35
2023-05-12T13:08:03.377Z,3.50
2023-05-12T13:10:31.575Z,3.50
2023-05-12T13:13:00.830Z,3.33
2023-05-12T13:15:29.474Z,3.72
2023-05-12T13:17:58.298Z,3.67
2023-05-12T13:20:28.820Z,2.95
2023-05-12T13:22:57.033Z,3.45
2023-05-12T13:25:25.190Z,3.65
2023-05-12T13:27:53.429Z,3.58
2023-05-12T13:30:22.711Z,3.28
2023-05-12T13:32:50.898Z,3.28
2023-05-12T13:35:19.324Z,3.30
2023-05-12T13:37:49.441Z,2.97
2023-05-12T13:40:17.668Z,3.45
2023-05-12T13:42:45.848Z,2.83
2023-05-12T13:45:13.960Z,3.10
2023-05-12T13:47:42.082Z,3.10
2023-05-12T13:50:10.720Z,3.95
2023-05-12T13:52:39.149Z,3.88
2023-05-12T13:55:09.583Z,4.30
2023-05-12T13:57:37.620Z,4.20
2023-05-12T14:00:08.426Z,4.70
2023-05-12T14:02:45.898Z,4.45
2023-05-12T14:05:14.035Z,3.70
2023-05-12T14:07:42.611Z,4.47
2023-05-12T14:10:12.722Z,4.07
2023-05-12T14:12:42.417Z,3.80
2023-05-12T14:15:22.041Z,4.07
2023-05-12T14:17:54.652Z,4.57
2023-05-12T14:20:22.721Z,4.25
2023-05-12T14:22:50.966Z,4.22
2023-05-12T14:25:20.652Z,4.13
2023-05-12T14:27:49.192Z,4.68
2023-05-12T14:30:17.959Z,4.45
2023-05-12T14:32:46.119Z,4.18
2023-05-12T14:35:14.372Z,4.20
2023-05-12T14:37:42.519Z,4.57
2023-05-12T14:40:12.102Z,4.25
2023-05-12T14:42:42.467Z,3.83
2023-05-12T14:45:11.417Z,4.53
2023-05-12T14:47:39.607Z,3.92
2023-05-12T14:50:08.591Z,4.32
2023-05-12T14:52:38.491Z,4.32
2023-05-12T14:55:11.524Z,4.47
2023-05-12T14:57:41.395Z,3.75
2023-05-12T15:00:12.320Z,3.60
2023-05-12T15:02:41.296Z,3.40
2023-05-12T15:05:11.303Z,3.10
2023-05-12T15:07:39.435Z,3.40
2023-05-12T15:10:08.223Z,3.28
2023-05-12T15:12:36.527Z,3.78
2023-05-12T15:15:08.835Z,3.38
2023-05-12T15:17:37.697Z,3.63
2023-05-12T15:20:06.951Z,3.55
2023-05-12T15:22:35.107Z,3.50
2023-05-12T15:25:04.503Z,3.38
2023-05-12T15:27:33.691Z,3.53
2023-05-12T15:30:01.948Z,3.72
2023-05-12T15:32:31.719Z,3.30
2023-05-12T15:34:59.922Z,3.80
2023-05-12T15:37:30.983Z,3.70
2023-05-12T15:39:59.428Z,4.03
2023-05-12T15:42:32.836Z,3.83
2023-05-12T15:45:04.443Z,3.60
2023-05-12T15:47:36.721Z,3.90
2023-05-12T15:50:05.434Z,3.97
2023-05-12T15:52:38.036Z,3.67
2023-05-12T15:55:08.875Z,4.18
2023-05-12T15:57:37.262Z,3.53
2023-05-12T16:00:12.756Z,3.88
2023-05-12T16:02:45.589Z,3.63
2023-05-12T16:05:27.128Z,3.63
2023-05-12T16:07:59.908Z,3.90
2023-05-12T16:10:28.447Z,4.20
2023-05-12T16:12:57.282Z,4.30
2023-05-12T16:15:41.231Z,4.40
2023-05-12T16:18:33.263Z,4.35
2023-05-12T16:21:57.850Z,4.00
2023-05-12T16:24:34.207Z,4.25
2023-05-12T16:27:11.561Z,4.93
2023-05-12T16:29:39.862Z,4.55
2023-05-12T16:32:19.961Z,4.32
2023-05-12T16:34:57.182Z,5.03
2023-05-12T16:37:28.565Z,5.05
2023-05-12T16:40:08.341Z,4.80
2023-05-12T16:42:57.036Z,4.22
2023-05-12T16:45:27.342Z,3.80
2023-05-12T16:47:56.736Z,3.90
2023-05-12T16:50:30.986Z,3.72
2023-05-12T16:52:59.160Z,3.88
2023-05-12T16:55:29.419Z,3.40
2023-05-12T16:58:03.517Z,3.30
2023-05-12T17:00:34.958Z,3.53
2023-05-12T17:03:10.017Z,3.30
2023-05-12T17:05:47.755Z,3.35
2023-05-12T17:08:23.330Z,3.35
2023-05-12T17:10:52.438Z,3.30
2023-05-12T17:13:21.741Z,3.35
2023-05-12T17:15:52.396Z,3.30
2023-05-12T17:18:21.491Z,3.00
2023-05-12T17:20:51.147Z,2.78
2023-05-12T17:23:21.336Z,3.13
2023-05-12T17:25:51.619Z,3.17
2023-05-12T17:28:20.409Z,3.10
2023-05-12T17:30:56.965Z,3.30
2023-05-12T17:33:25.612Z,2.85
2023-05-12T17:36:10.714Z,3.15
2023-05-12T17:38:44.596Z,2.78
2023-05-12T17:41:16.334Z,3.60
2023-05-12T17:43:51.445Z,3.17
2023-05-12T17:46:20.074Z,3.08
2023-05-12T17:48:48.348Z,2.75
2023-05-12T17:51:17.175Z,2.80
2023-05-12T17:53:47.745Z,3.00
2023-05-12T17:56:16.684Z,2.90
2023-05-12T17:58:45.160Z,2.92
2023-05-12T18:01:13.554Z,2.83
2023-05-12T18:03:41.963Z,2.85
2023-05-12T18:06:12.857Z,2.90
2023-05-12T18:08:41.374Z,3.05
2023-05-12T18:11:11.021Z,3.05
2023-05-12T18:13:40.363Z,3.13
2023-05-12T18:16:21.307Z,3.55
2023-05-12T18:18:56.067Z,3.05
2023-05-12T18:21:24.265Z,3.28
2023-05-12T18:23:52.438Z,3.53
2023-05-12T18:26:21.949Z,3.38
2023-05-12T18:28:50.107Z,3.30
2023-05-12T18:31:19.451Z,3.58
2023-05-12T18:33:48.432Z,3.03
2023-05-12T18:36:17.154Z,3.28
2023-05-12T18:38:45.765Z,3.10
2023-05-12T18:45:09.103Z,3.22
2023-05-12T18:47:58.748Z,3.20
2023-05-12T18:50:29.062Z,3.55
2023-05-12T18:52:57.766Z,3.30
2023-05-12T18:55:26.306Z,3.42
2023-05-12T18:57:54.513Z,3.25
2023-05-12T19:00:27.654Z,3.70
2023-05-12T19:02:55.948Z,3.30
2023-05-12T19:09:13.793Z,3.38
2023-05-12T19:11:42.542Z,3.65
2023-05-12T19:14:10.777Z,3.72
2023-05-12T19:16:42.417Z,4.07
2023-05-12T19:19:10.926Z,3.88
2023-05-12T19:21:47.500Z,3.65
2023-05-12T19:24:16.218Z,4.22
2023-05-12T19:26:50.598Z,4.10
2023-05-12T19:29:22.367Z,4.13
2023-05-12T19:32:12.426Z,4.22
2023-05-12T19:34:40.748Z,4.25
2023-05-12T19:37:09.431Z,4.25
2023-05-12T19:39:37.756Z,4.45
2023-05-12T19:42:06.519Z,4.15
2023-05-12T19:44:34.803Z,4.30
2023-05-12T19:50:20.299Z,4.15
2023-05-12T19:52:48.657Z,4.38
2023-05-12T19:55:16.981Z,4.15
2023-05-12T19:57:45.251Z,4.10
2023-05-12T20:00:14.850Z,3.67
2023-05-12T20:02:45.832Z,3.97
2023-05-12T20:05:14.180Z,4.10
2023-05-12T20:07:42.700Z,3.92
2023-05-12T20:10:12.096Z,4.50
2023-05-12T20:12:40.645Z,3.97
2023-05-12T20:15:10.024Z,4.45
2023-05-12T20:17:38.248Z,4.20
2023-05-12T20:20:11.430Z,4.50
2023-05-12T20:22:39.785Z,4.65
2023-05-12T20:25:08.487Z,4.50
2023-05-12T20:27:37.056Z,3.95
2023-05-12T20:30:12.317Z,4.47
2023-05-12T20:32:41.373Z,4.32
2023-05-12T20:35:11.291Z,4.50
2023-05-12T20:37:40.705Z,5.00
2023-05-12T20:40:10.875Z,5.20
2023-05-12T20:42:41.817Z,4.97
2023-05-12T20:45:13.614Z,4.57
2023-05-12T20:47:42.153Z,4.63
2023-05-12T20:50:12.696Z,4.80
2023-05-12T20:52:42.433Z,4.95
2023-05-12T20:55:12.752Z,4.68
2023-05-12T20:57:41.401Z,4.90
2023-05-12T21:00:11.569Z,4.93
2023-05-12T21:02:40.778Z,4.57
2023-05-12T21:05:10.419Z,4.93
2023-05-12T21:07:41.227Z,5.25
2023-05-12T21:10:10.489Z,4.57
2023-05-12T21:12:40.009Z,5.05
2023-05-12T21:15:11.807Z,5.03
2023-05-12T21:17:41.146Z,5.50
2023-05-12T21:20:11.912Z,5.30
2023-05-12T21:22:42.063Z,5.57
2023-05-12T21:25:11.422Z,5.10
2023-05-12T21:27:41.508Z,5.55
2023-05-12T21:30:11.365Z,5.38
2023-05-12T21:32:39.684Z,5.00
2023-05-12T21:35:08.944Z,5.35
2023-05-12T21:37:37.154Z,5.40
2023-05-12T21:40:07.972Z,5.50
2023-05-12T21:42:36.238Z,5.60
2023-05-12T21:45:04.763Z,5.40
2023-05-12T21:47:33.229Z,5.47
2023-05-12T21:50:03.646Z,5.88
2023-05-12T21:52:32.708Z,5.65
2023-05-12T21:55:03.319Z,5.50
2023-05-12T21:57:32.951Z,5.60
2023-05-12T22:00:03.935Z,5.53
2023-05-12T22:02:37.833Z,6.03
2023-05-12T22:05:06.734Z,5.80
2023-05-12T22:07:34.838Z,5.13
2023-05-12T22:10:03.803Z,5.38
2023-05-12T22:12:33.369Z,5.80
2023-05-12T22:15:01.773Z,5.10
2023-05-12T22:17:29.882Z,5.38
2023-05-12T22:19:58.234Z,5.47
2023-05-12T22:22:26.525Z,6.00
2023-05-12T22:24:54.731Z,5.03
2023-05-12T22:27:23.127Z,5.82
2023-05-12T22:29:52.713Z,5.47
2023-05-12T22:32:20.932Z,6.28
2023-05-12T22:34:49.218Z,5.55
2023-05-12T22:37:17.314Z,5.32
2023-05-12T22:39:45.578Z,6.05
2023-05-12T22:42:13.748Z,6.25
2023-05-12T22:44:41.838Z,5.75
2023-05-12T22:47:11.540Z,5.88
2023-05-12T22:49:40.723Z,5.68
2023-05-12T22:52:09.074Z,6.00
2023-05-12T22:54:37.261Z,5.35
2023-05-12T22:57:05.796Z,5.90
2023-05-12T22:59:33.898Z,6.28
2023-05-12T23:02:02.130Z,6.47
2023-05-12T23:04:31.793Z,6.40
2023-05-12T23:06:59.968Z,5.82
2023-05-12T23:09:28.142Z,6.05
2023-05-12T23:11:56.399Z,6.60
2023-05-12T23:14:24.725Z,7.00
2023-05-12T23:16:53.015Z,6.35
2023-05-12T23:19:21.190Z,6.35
2023-05-12T23:21:51.232Z,6.20
2023-05-12T23:24:19.434Z,6.03
2023-05-12T23:26:47.633Z,6.28
2023-05-12T23:29:15.762Z,5.97
2023-05-12T23:31:44.024Z,6.35
2023-05-12T23:34:12.478Z,5.93
2023-05-12T23:36:40.630Z,6.65
2023-05-12T23:39:10.172Z,6.10
2023-05-12T23:41:38.289Z,6.53
2023-05-12T23:44:06.591Z,6.07
2023-05-12T23:46:34.693Z,6.07
2023-05-12T23:49:02.841Z,6.60
2023-05-12T23:51:31.700Z,5.85
2023-05-12T23:53:59.871Z,6.47
2023-05-12T23:56:29.454Z,6.43
2023-05-12T23:58:57.585Z,6.22
